| time (UTC) | temp C | wind direction | speed KPH | gust KPH | rain 1hr cm | rain 24hr cm | rain mn cm | humidity % | barometer mb |
| 20260507140511 | 13 | 168 | 1.6 | 8.0 | 0.00 | 0.20 | 0.08 | 82 | 1012.7 |
| 20260507133511 | 13 | 109 | 0.0 | 11.3 | 0.00 | 0.20 | 0.08 | 84 | 1012.4 |
| 20260507130511 | 13 | 200 | 0.0 | 12.9 | 0.00 | 0.20 | 0.08 | 85 | 1012.8 |
| 20260507123510 | 13 | 76 | 1.6 | 6.4 | 0.03 | 0.20 | 0.08 | 91 | 1012.5 |
| 20260507120510 | 13 | 96 | 0.0 | 4.8 | 0.05 | 0.20 | 0.08 | 92 | 1012.3 |
| 20260507113510 | 13 | 187 | 0.0 | 8.0 | 0.03 | 0.18 | 0.05 | 90 | 1012.5 |
| 20260507110510 | 13 | 269 | 0.0 | 11.3 | 0.00 | 0.15 | 0.03 | 90 | 1012.1 |
| 20260507103510 | 14 | 51 | 0.0 | 17.7 | 0.03 | 0.15 | 0.03 | 91 | 1011.6 |
| 20260507100509 | 15 | 105 | 0.0 | 9.7 | 0.03 | 0.15 | 0.03 | 91 | 1011.7 |
| 20260507093509 | 16 | 133 | 0.0 | 6.4 | 0.00 | 0.13 | 0.00 | 89 | 1011.4 |
| 20260507090509 | 16 | 198 | 1.6 | 9.7 | 0.00 | 0.13 | 0.00 | 90 | 1010.8 |
| 20260507083508 | 18 | 48 | 0.0 | 9.7 | 0.00 | 0.13 | 0.00 | 91 | 1010.6 |
| 20260507070508 | 18 | 278 | 0.0 | 1.6 | 0.00 | 0.13 | 0.00 | 90 | 1009.5 |
| 20260507063508 | 19 | 263 | 0.0 | 4.8 | 0.00 | 0.13 | 0.00 | 88 | 1009.0 |
| 20260507060507 | 20 | 253 | 0.0 | 1.6 | 0.00 | 0.13 | 0.00 | 87 | 1009.5 |
| 20260507050507 | 20 | 253 | 0.0 | 1.6 | 0.00 | 0.13 | 0.00 | 86 | 1010.3 |
| 20260507043507 | 20 | 252 | 0.0 | 0.0 | 0.00 | 0.13 | 0.00 | 86 | 1010.5 |
| 20260507040506 | 20 | 253 | 0.0 | 3.2 | 0.00 | 0.13 | 0.00 | 87 | 1010.6 |
| 20260507033506 | 19 | 65 | 0.0 | 1.6 | 0.00 | 0.13 | 0.13 | 87 | 1010.3 |
| 20260507023506 | 18 | 55 | 0.0 | 4.8 | 0.00 | 0.13 | 0.13 | 89 | 1010.6 |
| 20260507020506 | 18 | 263 | 0.0 | 1.6 | 0.00 | 0.13 | 0.13 | 89 | 1010.5 |
| 20260507013506 | 18 | 263 | 0.0 | 0.0 | 0.00 | 0.13 | 0.13 | 89 | 1010.7 |
| 20260507010506 | 18 | 263 | 0.0 | 0.0 | 0.00 | 0.13 | 0.13 | 88 | 1010.8 |
| 20260507003505 | 18 | 263 | 0.0 | 0.0 | 0.00 | 0.13 | 0.13 | 87 | 1010.7 |
| 20260507000505 | 20 | 263 | 0.0 | 0.0 | 0.00 | 0.13 | 0.13 | 83 | 1010.7 |
| 20260506233505 | 21 | 264 | 0.0 | 1.6 | 0.00 | 0.13 | 0.13 | 79 | 1010.5 |
| 20260506230505 | 22 | 264 | 0.0 | 1.6 | 0.00 | 0.13 | 0.13 | 77 | 1010.2 |
| 20260506223505 | 22 | 261 | 0.0 | 1.6 | 0.00 | 0.13 | 0.13 | 76 | 1010.4 |
| 20260506220504 | 23 | 250 | 0.0 | 6.4 | 0.00 | 0.13 | 0.13 | 75 | 1010.6 |
| 20260506213504 | 23 | 218 | 0.0 | 1.6 | 0.00 | 0.13 | 0.13 | 76 | 1010.5 |
| 20260506210504 | 22 | 218 | 0.0 | 1.6 | 0.00 | 0.13 | 0.13 | 80 | 1010.3 |
| 20260506203504 | 22 | 217 | 0.0 | 4.8 | 0.00 | 0.13 | 0.13 | 79 | 1010.0 |
| 20260506200504 | 21 | 4 | 0.0 | 1.6 | 0.00 | 0.13 | 0.13 | 80 | 1010.4 |
| 20260506193503 | 21 | 70 | 0.0 | 8.0 | 0.00 | 0.13 | 0.13 | 80 | 1010.7 |
| 20260506190503 | 20 | 252 | 0.0 | 12.9 | 0.03 | 0.13 | 0.13 | 80 | 1011.2 |
| 20260506183503 | 20 | 355 | 0.0 | 4.8 | 0.03 | 0.13 | 0.13 | 83 | 1011.4 |
| 20260506180503 | 20 | 176 | 0.0 | 6.4 | 0.00 | 0.10 | 0.10 | 83 | 1012.0 |
| 20260506170502 | 18 | 6 | 0.0 | 12.9 | 0.00 | 0.10 | 0.10 | 89 | 1012.1 |
| 20260506163502 | 18 | 68 | 1.6 | 4.8 | 0.08 | 0.10 | 0.10 | 88 | 1012.4 |
| 20260506160502 | 18 | 346 | 0.0 | 1.6 | 0.10 | 0.10 | 0.10 | 89 | 1013.0 |
| 20260506150502 | 21 | 241 | 0.0 | 11.3 | 0.00 | 0.00 | 0.00 | 75 | 1014.0 |
| 20260506143501 | 20 | 44 | 1.6 | 8.0 | 0.00 | 0.00 | 0.00 | 76 | 1013.4 |